createdAt,value
2017-01-13T00:00:29.477Z,0
2017-01-13T00:01:29.455Z,0
2017-01-13T00:02:29.835Z,0
2017-01-13T00:03:29.529Z,0
2017-01-13T00:04:29.423Z,0
2017-01-13T00:05:29.409Z,0
2017-01-13T00:06:29.395Z,0
2017-01-13T00:07:29.383Z,0
2017-01-13T00:08:29.396Z,0
2017-01-13T00:09:29.357Z,0
2017-01-13T00:10:29.368Z,0
2017-01-13T00:11:29.333Z,0
2017-01-13T00:12:29.324Z,0
2017-01-13T00:13:29.306Z,0
2017-01-13T00:14:29.295Z,0
2017-01-13T00:15:29.282Z,0
2017-01-13T00:16:29.268Z,0
2017-01-13T00:17:29.255Z,0
2017-01-13T00:18:29.243Z,0
2017-01-13T00:19:29.231Z,0
2017-01-13T00:20:29.217Z,0
2017-01-13T00:21:29.214Z,0
2017-01-13T00:22:29.192Z,0
2017-01-13T00:23:29.181Z,0
2017-01-13T00:24:29.164Z,0
2017-01-13T00:25:29.156Z,0
2017-01-13T00:26:29.527Z,0
2017-01-13T00:27:29.131Z,0
2017-01-13T00:28:29.116Z,0
2017-01-13T00:29:29.103Z,0
2017-01-13T00:30:29.091Z,0
2017-01-13T00:31:29.077Z,0
2017-01-13T00:32:29.070Z,0
2017-01-13T00:33:29.054Z,0
2017-01-13T00:34:29.041Z,0
2017-01-13T00:35:29.028Z,0
2017-01-13T00:36:29.404Z,0
2017-01-13T00:37:29.004Z,0
2017-01-13T00:38:28.991Z,0
2017-01-13T00:39:28.980Z,0
2017-01-13T00:40:28.964Z,0
2017-01-13T00:41:28.953Z,0
2017-01-13T00:42:28.942Z,0
2017-01-13T00:43:28.929Z,0
2017-01-13T00:44:28.916Z,0
2017-01-13T00:45:28.901Z,0
2017-01-13T00:46:29.277Z,0
2017-01-13T00:47:28.877Z,0
2017-01-13T00:48:28.866Z,0
2017-01-13T00:49:28.850Z,0
2017-01-13T00:50:28.838Z,0
2017-01-13T00:51:28.825Z,0
2017-01-13T00:52:28.811Z,0
2017-01-13T00:53:28.802Z,0
2017-01-13T00:54:28.791Z,0
2017-01-13T00:55:28.778Z,0
2017-01-13T00:56:28.766Z,0
2017-01-13T00:57:28.749Z,0
2017-01-13T00:58:28.736Z,0
2017-01-13T00:59:28.730Z,0
2017-01-13T01:00:28.709Z,0
2017-01-13T01:01:28.701Z,0
2017-01-13T01:02:28.686Z,0
2017-01-13T01:03:28.675Z,0
2017-01-13T01:04:28.661Z,0
2017-01-13T01:05:28.651Z,0
2017-01-13T01:06:28.638Z,0
2017-01-13T01:07:28.623Z,0
2017-01-13T01:08:28.614Z,0
2017-01-13T01:09:28.597Z,0
2017-01-13T01:10:28.589Z,0
2017-01-13T01:11:28.571Z,0
2017-01-13T01:12:28.564Z,0
2017-01-13T01:13:28.551Z,0
2017-01-13T01:14:28.532Z,0
2017-01-13T01:15:28.518Z,0
2017-01-13T01:16:28.899Z,0
2017-01-13T01:17:28.495Z,0
2017-01-13T01:18:28.484Z,0
2017-01-13T01:19:28.470Z,0
2017-01-13T01:20:28.458Z,0
2017-01-13T01:21:28.839Z,0
2017-01-13T01:22:28.428Z,0
2017-01-13T01:23:28.424Z,0
2017-01-13T01:24:28.408Z,0
2017-01-13T01:25:28.391Z,0
2017-01-13T01:26:28.382Z,0
2017-01-13T01:27:28.367Z,0
2017-01-13T01:28:28.358Z,0
2017-01-13T01:29:28.340Z,0
2017-01-13T01:30:28.347Z,0
2017-01-13T01:31:28.315Z,0
2017-01-13T01:32:28.300Z,0
2017-01-13T01:33:28.292Z,0
2017-01-13T01:34:28.277Z,0
2017-01-13T01:35:28.267Z,0
2017-01-13T01:36:28.250Z,0
2017-01-13T01:37:28.238Z,0
2017-01-13T01:38:28.248Z,0
2017-01-13T01:39:28.216Z,0
2017-01-13T01:40:28.205Z,0
2017-01-13T01:41:28.188Z,0
2017-01-13T01:42:28.177Z,0
2017-01-13T01:43:28.160Z,0
2017-01-13T01:44:28.150Z,0
2017-01-13T01:45:28.135Z,0
2017-01-13T01:46:28.124Z,0
2017-01-13T01:47:28.113Z,0
2017-01-13T01:48:28.094Z,0
2017-01-13T01:49:28.085Z,0
2017-01-13T01:50:28.072Z,0
2017-01-13T01:51:28.057Z,0
2017-01-13T01:52:28.046Z,0
2017-01-13T01:53:28.416Z,0
2017-01-13T01:54:28.018Z,0
2017-01-13T01:55:28.006Z,0
2017-01-13T01:56:27.992Z,0
2017-01-13T01:57:27.981Z,0
2017-01-13T01:58:27.964Z,0
2017-01-13T01:59:27.960Z,0
2017-01-13T02:00:27.938Z,0
2017-01-13T02:01:27.928Z,0
2017-01-13T02:02:27.915Z,0
2017-01-13T02:03:27.900Z,0
2017-01-13T02:04:27.898Z,0
2017-01-13T02:05:27.876Z,0
2017-01-13T02:06:27.864Z,0
2017-01-13T02:07:28.233Z,0
2017-01-13T02:08:27.839Z,0
2017-01-13T02:09:27.819Z,0
2017-01-13T02:10:28.204Z,0
2017-01-13T02:11:27.794Z,0
2017-01-13T02:12:27.786Z,0
2017-01-13T02:13:27.777Z,0
2017-01-13T02:14:27.758Z,0
2017-01-13T02:15:27.746Z,0
2017-01-13T02:16:27.754Z,0
2017-01-13T02:17:27.722Z,0
2017-01-13T02:18:27.708Z,0
2017-01-13T02:19:27.694Z,0
2017-01-13T02:20:27.676Z,0
2017-01-13T02:21:27.666Z,0
2017-01-13T02:22:27.652Z,0
2017-01-13T02:23:27.636Z,0
2017-01-13T02:24:27.627Z,0
2017-01-13T02:25:27.614Z,0
2017-01-13T02:26:27.599Z,0
2017-01-13T02:27:27.592Z,0
2017-01-13T02:28:27.571Z,0
2017-01-13T02:29:27.561Z,0
2017-01-13T02:30:27.550Z,0
2017-01-13T02:31:27.536Z,0
2017-01-13T02:32:27.519Z,0
2017-01-13T02:33:27.505Z,0
2017-01-13T02:34:27.492Z,0
2017-01-13T02:35:27.485Z,0
2017-01-13T02:36:27.463Z,0
2017-01-13T02:37:27.454Z,0
2017-01-13T02:38:27.438Z,0
2017-01-13T02:39:27.426Z,0
2017-01-13T02:40:27.417Z,0
2017-01-13T02:41:27.399Z,0
2017-01-13T02:42:27.388Z,0
2017-01-13T02:43:27.375Z,0
2017-01-13T02:44:27.360Z,0
2017-01-13T02:45:27.348Z,0
2017-01-13T02:46:27.336Z,0
2017-01-13T02:47:27.318Z,0
2017-01-13T02:48:27.306Z,0
2017-01-13T02:49:27.297Z,0
2017-01-13T02:50:27.566Z,0
2017-01-13T02:51:27.353Z,0
2017-01-13T02:52:27.309Z,0
2017-01-13T02:53:27.245Z,0
2017-01-13T02:54:27.226Z,0
2017-01-13T02:55:27.600Z,0
2017-01-13T02:56:27.203Z,0
2017-01-13T02:57:27.187Z,0
2017-01-13T02:58:27.174Z,0
2017-01-13T02:59:27.161Z,0
2017-01-13T03:00:27.151Z,0
2017-01-13T03:01:27.134Z,0
2017-01-13T03:02:27.121Z,0
2017-01-13T03:03:27.105Z,0
2017-01-13T03:04:27.091Z,0
2017-01-13T03:05:27.082Z,0
2017-01-13T03:06:27.094Z,0
2017-01-13T03:07:27.054Z,0
2017-01-13T03:08:27.044Z,0
2017-01-13T03:09:27.030Z,0
2017-01-13T03:10:27.013Z,0
2017-01-13T03:11:26.998Z,0
2017-01-13T03:12:26.989Z,0
2017-01-13T03:13:26.977Z,0
2017-01-13T03:14:26.966Z,0
2017-01-13T03:15:26.949Z,0
2017-01-13T03:16:26.933Z,0
2017-01-13T03:17:26.920Z,0
2017-01-13T03:18:26.912Z,0
2017-01-13T03:19:26.893Z,0
2017-01-13T03:20:26.877Z,0
2017-01-13T03:21:26.868Z,0
2017-01-13T03:22:26.853Z,0
2017-01-13T03:23:26.842Z,0
2017-01-13T03:24:26.826Z,0
2017-01-13T03:25:26.810Z,0
2017-01-13T03:26:26.799Z,0
2017-01-13T03:27:26.784Z,0
2017-01-13T03:28:26.776Z,0
2017-01-13T03:29:26.756Z,0
2017-01-13T03:30:26.751Z,0
2017-01-13T03:31:26.728Z,0
2017-01-13T03:32:26.716Z,0
2017-01-13T03:33:26.704Z,0
2017-01-13T03:34:26.688Z,0
2017-01-13T03:35:26.683Z,0
2017-01-13T03:36:26.661Z,0
2017-01-13T03:37:26.649Z,0
2017-01-13T03:38:26.639Z,0
2017-01-13T03:39:26.622Z,0
2017-01-13T03:40:26.607Z,0
2017-01-13T03:41:26.594Z,0
2017-01-13T03:42:26.580Z,0
2017-01-13T03:43:26.566Z,0
2017-01-13T03:44:26.938Z,0
2017-01-13T03:45:26.542Z,0
2017-01-13T03:46:26.551Z,0
2017-01-13T03:47:26.509Z,0
2017-01-13T03:48:26.498Z,0
2017-01-13T03:49:26.483Z,0
2017-01-13T03:50:26.470Z,0
2017-01-13T03:51:26.457Z,0
2017-01-13T03:52:26.443Z,0
2017-01-13T03:53:26.427Z,0
2017-01-13T03:54:26.414Z,0
2017-01-13T03:55:26.402Z,0
2017-01-13T03:56:26.686Z,0
2017-01-13T03:57:26.372Z,0
2017-01-13T03:58:26.357Z,0
2017-01-13T03:59:26.343Z,0
2017-01-13T04:00:26.332Z,0
2017-01-13T04:01:26.316Z,0
2017-01-13T04:02:26.301Z,0
2017-01-13T04:03:26.289Z,0
2017-01-13T04:04:26.273Z,0
2017-01-13T04:05:26.261Z,0
2017-01-13T04:06:26.245Z,0
2017-01-13T04:07:26.235Z,0
2017-01-13T04:08:26.214Z,0
2017-01-13T04:09:26.222Z,0
2017-01-13T04:10:26.189Z,0
2017-01-13T04:11:26.174Z,0
2017-01-13T04:12:26.163Z,0
2017-01-13T04:13:26.146Z,0
2017-01-13T04:14:26.133Z,0
2017-01-13T04:15:26.117Z,0
2017-01-13T04:16:26.109Z,0
2017-01-13T04:17:26.092Z,0
2017-01-13T04:18:26.076Z,0
2017-01-13T04:19:26.066Z,0
2017-01-13T04:20:26.048Z,0
2017-01-13T04:21:26.037Z,0
2017-01-13T04:22:26.018Z,0
2017-01-13T04:23:26.007Z,0
2017-01-13T04:24:25.990Z,0
2017-01-13T04:25:25.980Z,0
2017-01-13T04:26:25.966Z,0
2017-01-13T04:27:25.949Z,0
2017-01-13T04:28:25.934Z,0
2017-01-13T04:29:25.929Z,0
2017-01-13T04:30:25.907Z,0
2017-01-13T04:31:25.894Z,0
2017-01-13T04:32:25.881Z,0
2017-01-13T04:33:25.865Z,0
2017-01-13T04:34:25.854Z,0
2017-01-13T04:35:25.840Z,0
2017-01-13T04:36:25.824Z,0
2017-01-13T04:37:25.812Z,0
2017-01-13T04:38:25.796Z,0
2017-01-13T04:39:25.782Z,0
2017-01-13T04:40:25.769Z,0
2017-01-13T04:41:25.753Z,0
2017-01-13T04:42:25.743Z,0
2017-01-13T04:43:25.728Z,0
2017-01-13T04:44:25.716Z,0
2017-01-13T04:45:25.714Z,0
2017-01-13T04:46:25.686Z,0
2017-01-13T04:47:25.670Z,0
2017-01-13T04:48:25.660Z,0
2017-01-13T04:49:26.035Z,0
2017-01-13T04:50:25.631Z,0
2017-01-13T04:51:25.645Z,0
2017-01-13T04:52:25.602Z,0
2017-01-13T04:53:25.590Z,0
2017-01-13T04:54:25.572Z,0
2017-01-13T04:55:25.560Z,0
2017-01-13T04:56:25.548Z,0
2017-01-13T04:57:25.532Z,0
2017-01-13T04:58:25.516Z,0
2017-01-13T04:59:25.502Z,0
2017-01-13T05:00:25.491Z,0
2017-01-13T05:01:25.474Z,0
2017-01-13T05:02:25.465Z,0
2017-01-13T05:03:25.446Z,0
2017-01-13T05:04:25.430Z,0
2017-01-13T05:05:25.445Z,0
2017-01-13T05:06:25.402Z,0
2017-01-13T05:07:25.391Z,0
2017-01-13T05:08:25.374Z,0
2017-01-13T05:09:25.360Z,0
2017-01-13T05:10:25.346Z,0
2017-01-13T05:11:25.332Z,0
2017-01-13T05:12:25.323Z,0
2017-01-13T05:13:25.311Z,0
2017-01-13T05:14:25.294Z,0
2017-01-13T05:15:25.275Z,0
2017-01-13T05:16:25.272Z,0
2017-01-13T05:17:25.251Z,0
2017-01-13T05:18:25.235Z,0
2017-01-13T05:19:25.220Z,0
2017-01-13T05:20:25.206Z,0
2017-01-13T05:21:25.195Z,0
2017-01-13T05:22:25.181Z,0
2017-01-13T05:23:25.164Z,0
2017-01-13T05:24:25.151Z,0
2017-01-13T05:25:25.139Z,0
2017-01-13T05:26:25.121Z,0
2017-01-13T05:27:25.114Z,0
2017-01-13T05:28:25.106Z,0
2017-01-13T05:29:25.088Z,0
2017-01-13T05:30:25.071Z,0
2017-01-13T05:31:25.061Z,0
2017-01-13T05:32:25.042Z,0
2017-01-13T05:33:25.032Z,0
2017-01-13T05:34:25.014Z,0
2017-01-13T05:35:25.002Z,0
2017-01-13T05:36:24.989Z,0
2017-01-13T05:37:24.972Z,0
2017-01-13T05:38:24.962Z,0
2017-01-13T05:39:24.946Z,0
2017-01-13T05:40:24.936Z,0
2017-01-13T05:41:24.917Z,0
2017-01-13T05:42:24.905Z,0
2017-01-13T05:43:24.892Z,0
2017-01-13T05:44:24.877Z,0
2017-01-13T05:45:24.864Z,0
2017-01-13T05:46:24.850Z,0
2017-01-13T05:47:24.840Z,0
2017-01-13T05:48:24.824Z,0
2017-01-13T05:49:24.812Z,0
2017-01-13T05:50:24.808Z,0
2017-01-13T05:51:24.783Z,0
2017-01-13T05:52:24.768Z,0
2017-01-13T05:53:24.757Z,0
2017-01-13T05:54:24.744Z,0
2017-01-13T05:55:24.732Z,0
2017-01-13T05:56:24.715Z,0
2017-01-13T05:57:24.729Z,0
2017-01-13T05:58:24.688Z,0
2017-01-13T05:59:24.680Z,0
2017-01-13T06:00:24.661Z,0
2017-01-13T06:01:24.646Z,0
2017-01-13T06:02:24.635Z,0
2017-01-13T06:03:24.619Z,0
2017-01-13T06:04:24.616Z,0
2017-01-13T06:05:24.593Z,0
2017-01-13T06:06:24.580Z,0
2017-01-13T06:07:24.567Z,0
2017-01-13T06:08:24.554Z,0
2017-01-13T06:09:24.542Z,0
2017-01-13T06:10:24.525Z,0
2017-01-13T06:11:24.513Z,0
2017-01-13T06:12:24.499Z,0
2017-01-13T06:13:24.490Z,0
2017-01-13T06:14:24.472Z,0
2017-01-13T06:15:24.459Z,0
2017-01-13T06:16:24.454Z,0
2017-01-13T06:17:24.819Z,0
2017-01-13T06:18:24.425Z,0
2017-01-13T06:19:24.410Z,0
2017-01-13T06:20:24.393Z,0
2017-01-13T06:21:24.380Z,0
2017-01-13T06:22:24.367Z,0
2017-01-13T06:23:24.361Z,0
2017-01-13T06:24:24.341Z,16
2017-01-13T06:25:24.327Z,32
2017-01-13T06:26:24.312Z,40
2017-01-13T06:27:24.305Z,40
2017-01-13T06:28:24.289Z,44
2017-01-13T06:29:24.274Z,44
2017-01-13T06:30:24.259Z,44
2017-01-13T06:31:24.248Z,44
2017-01-13T06:32:24.238Z,44
2017-01-13T06:33:24.223Z,44
2017-01-13T06:34:24.208Z,44
2017-01-13T06:35:24.196Z,44
2017-01-13T06:36:24.184Z,44
2017-01-13T06:37:24.167Z,44
2017-01-13T06:38:24.154Z,44
2017-01-13T06:39:24.142Z,48
2017-01-13T06:40:24.128Z,44
2017-01-13T06:41:24.117Z,44
2017-01-13T06:42:24.104Z,48
2017-01-13T06:43:24.089Z,48
2017-01-13T06:44:24.078Z,48
2017-01-13T06:45:24.062Z,48
2017-01-13T06:46:24.051Z,48
2017-01-13T06:47:24.039Z,48
2017-01-13T06:48:24.021Z,52
2017-01-13T06:49:24.008Z,52
2017-01-13T06:50:24.024Z,56
2017-01-13T06:51:23.983Z,56
2017-01-13T06:52:23.969Z,52
2017-01-13T06:53:23.958Z,52
2017-01-13T06:54:23.942Z,60
2017-01-13T06:55:23.935Z,60
2017-01-13T06:56:23.920Z,60
2017-01-13T06:57:23.906Z,60
2017-01-13T06:58:23.889Z,68
2017-01-13T06:59:23.879Z,68
2017-01-13T07:00:23.873Z,72
2017-01-13T07:01:23.863Z,76
2017-01-13T07:02:23.867Z,80
2017-01-13T07:03:23.826Z,84
2017-01-13T07:04:23.814Z,92
2017-01-13T07:05:23.802Z,96
2017-01-13T07:06:23.789Z,92
2017-01-13T07:07:23.776Z,96
2017-01-13T07:08:23.762Z,108
2017-01-13T07:09:23.750Z,120
2017-01-13T07:10:23.735Z,136
2017-01-13T07:11:23.725Z,156
2017-01-13T07:12:24.097Z,176
2017-01-13T07:13:23.699Z,180
2017-01-13T07:14:23.683Z,188
2017-01-13T07:15:23.676Z,212
2017-01-13T07:16:23.658Z,236
2017-01-13T07:17:23.646Z,264
2017-01-13T07:18:23.634Z,284
2017-01-13T07:19:23.621Z,280
2017-01-13T07:20:23.608Z,264
2017-01-13T07:21:23.596Z,248
2017-01-13T07:22:23.580Z,232
2017-01-13T07:23:23.574Z,248
2017-01-13T07:24:23.553Z,260
2017-01-13T07:25:23.541Z,300
2017-01-13T07:26:23.533Z,352
2017-01-13T07:27:23.517Z,352
2017-01-13T07:28:23.503Z,424
2017-01-13T07:29:23.491Z,476
2017-01-13T07:30:23.479Z,568
2017-01-13T07:31:23.468Z,564
2017-01-13T07:32:23.450Z,528
2017-01-13T07:33:23.825Z,592
2017-01-13T07:34:23.428Z,564
2017-01-13T07:35:23.418Z,600
2017-01-13T07:36:23.408Z,664
2017-01-13T07:37:23.389Z,656
2017-01-13T07:38:23.380Z,672
2017-01-13T07:39:23.362Z,660
2017-01-13T07:40:23.738Z,728
2017-01-13T07:41:23.336Z,724
2017-01-13T07:42:23.333Z,724
2017-01-13T07:43:23.313Z,868
2017-01-13T07:44:23.304Z,948
2017-01-13T07:45:23.285Z,848
2017-01-13T07:46:23.281Z,828
2017-01-13T07:47:23.261Z,708
2017-01-13T07:48:23.249Z,860
2017-01-13T07:49:23.626Z,892
2017-01-13T07:50:23.223Z,808
2017-01-13T07:51:23.211Z,956
2017-01-13T07:52:23.197Z,944
2017-01-13T07:53:23.192Z,1100
2017-01-13T07:54:23.175Z,1076
2017-01-13T07:55:23.161Z,1072
2017-01-13T07:56:23.151Z,1060
2017-01-13T07:57:23.138Z,972
2017-01-13T07:58:23.128Z,1200
2017-01-13T07:59:23.113Z,1160
2017-01-13T08:00:23.101Z,1264
2017-01-13T08:01:23.086Z,1596
2017-01-13T08:02:23.074Z,1640
2017-01-13T08:03:23.085Z,1728
2017-01-13T08:04:23.047Z,2072
2017-01-13T08:05:23.043Z,2208
2017-01-13T08:06:23.023Z,2360
2017-01-13T08:07:23.010Z,2696
2017-01-13T08:08:23.005Z,2724
2017-01-13T08:09:22.985Z,2952
2017-01-13T08:10:22.977Z,2844
2017-01-13T08:11:22.966Z,2984
2017-01-13T08:12:22.947Z,2972
2017-01-13T08:13:22.941Z,2684
2017-01-13T08:14:22.925Z,3088
2017-01-13T08:15:22.911Z,2608
2017-01-13T08:16:22.917Z,2908
2017-01-13T08:17:22.889Z,2756
2017-01-13T08:18:22.878Z,2656
2017-01-13T08:19:22.868Z,2400
2017-01-13T08:20:22.851Z,2632
2017-01-13T08:21:22.849Z,2548
2017-01-13T08:22:22.826Z,2728
2017-01-13T08:23:22.811Z,2772
2017-01-13T08:24:22.807Z,2704
2017-01-13T08:25:22.822Z,3348
2017-01-13T08:26:22.784Z,3372
2017-01-13T08:27:22.771Z,3644
2017-01-13T08:28:22.754Z,3464
2017-01-13T08:29:22.741Z,3200
2017-01-13T08:30:22.735Z,3044
2017-01-13T08:31:22.721Z,2640
2017-01-13T08:32:22.706Z,2932
2017-01-13T08:33:22.717Z,2828
2017-01-13T08:34:22.684Z,2804
2017-01-13T08:35:22.667Z,3012
2017-01-13T08:36:22.685Z,3032
2017-01-13T08:37:22.643Z,2544
2017-01-13T08:38:22.631Z,2732
2017-01-13T08:39:22.621Z,2524
2017-01-13T08:40:22.608Z,2172
2017-01-13T08:41:22.605Z,2364
2017-01-13T08:42:22.588Z,2056
2017-01-13T08:43:22.573Z,1840
2017-01-13T08:44:22.561Z,2032
2017-01-13T08:45:22.559Z,1752
2017-01-13T08:46:22.538Z,2352
2017-01-13T08:47:22.527Z,2048
2017-01-13T08:48:22.526Z,1852
2017-01-13T08:49:22.513Z,2188
2017-01-13T08:50:22.507Z,2476
2017-01-13T08:51:22.523Z,2868
2017-01-13T08:52:22.465Z,2416
2017-01-13T08:53:22.476Z,3224
2017-01-13T08:54:22.443Z,3760
2017-01-13T08:55:22.434Z,3468
2017-01-13T08:56:22.418Z,3660
2017-01-13T08:57:22.404Z,3912
2017-01-13T08:58:22.398Z,4156
2017-01-13T08:59:22.379Z,4336
2017-01-13T09:00:22.376Z,4188
2017-01-13T09:01:22.362Z,3864
2017-01-13T09:02:22.340Z,3804
2017-01-13T09:03:22.336Z,3560
2017-01-13T09:04:22.710Z,3316
2017-01-13T09:05:22.311Z,3336
2017-01-13T09:06:22.298Z,3404
2017-01-13T09:07:22.674Z,3536
2017-01-13T09:08:22.274Z,3988
2017-01-13T09:09:22.261Z,4144
2017-01-13T09:10:22.651Z,4076
2017-01-13T09:11:22.234Z,3804
2017-01-13T09:12:22.229Z,3508
2017-01-13T09:13:22.218Z,3284
2017-01-13T09:14:22.212Z,3028
2017-01-13T09:15:22.187Z,2368
2017-01-13T09:16:22.183Z,2416
2017-01-13T09:17:22.168Z,2408
2017-01-13T09:18:22.154Z,2088
2017-01-13T09:19:22.145Z,2208
2017-01-13T09:20:22.126Z,2084
2017-01-13T09:21:22.115Z,2536
2017-01-13T09:22:22.105Z,2560
2017-01-13T09:23:22.096Z,2924
2017-01-13T09:24:22.083Z,3048
2017-01-13T09:25:22.064Z,3020
2017-01-13T09:26:22.443Z,3252
2017-01-13T09:27:22.433Z,3116
2017-01-13T09:28:22.034Z,2440
2017-01-13T09:29:22.025Z,2028
2017-01-13T09:30:22.007Z,1808
2017-01-13T09:31:22.008Z,1888
2017-01-13T09:32:21.987Z,1564
2017-01-13T09:33:21.973Z,1444
2017-01-13T09:34:21.965Z,1556
2017-01-13T09:35:21.949Z,1500
2017-01-13T09:36:21.934Z,1648
2017-01-13T09:37:21.926Z,1776
2017-01-13T09:38:21.915Z,1960
2017-01-13T09:39:21.896Z,2112
2017-01-13T09:40:21.897Z,1840
2017-01-13T09:41:21.876Z,1720
2017-01-13T09:42:21.865Z,1704
2017-01-13T09:43:21.856Z,1676
2017-01-13T09:44:21.834Z,1584
2017-01-13T09:45:21.828Z,1616
2017-01-13T09:46:21.823Z,1460
2017-01-13T09:47:21.799Z,1492
2017-01-13T09:48:21.786Z,1452
2017-01-13T09:49:21.782Z,1444
2017-01-13T09:50:21.764Z,1568
2017-01-13T09:51:21.750Z,1744
2017-01-13T09:52:21.744Z,2124
2017-01-13T09:53:21.728Z,2544
2017-01-13T09:54:21.717Z,2648
2017-01-13T09:55:21.702Z,2468
2017-01-13T09:56:21.690Z,2568
2017-01-13T09:57:21.679Z,3116
2017-01-13T09:58:21.664Z,3896
2017-01-13T09:59:21.655Z,3744
2017-01-13T10:00:21.642Z,3520
2017-01-13T10:01:21.624Z,4088
2017-01-13T10:02:21.618Z,4320
2017-01-13T10:03:21.806Z,4848
2017-01-13T10:04:21.591Z,5388
2017-01-13T10:05:21.806Z,5384
2017-01-13T10:06:21.563Z,4556
2017-01-13T10:07:21.553Z,4104
2017-01-13T10:08:21.537Z,3940
2017-01-13T10:09:21.527Z,3748
2017-01-13T10:10:21.513Z,3748
2017-01-13T10:11:21.501Z,4004
2017-01-13T10:12:21.502Z,3604
2017-01-13T10:13:21.480Z,3860
2017-01-13T10:14:21.469Z,3752
2017-01-13T10:15:21.453Z,3780
2017-01-13T10:16:21.443Z,3576
2017-01-13T10:17:21.430Z,3584
2017-01-13T10:18:21.415Z,3316
2017-01-13T10:19:21.401Z,2940
2017-01-13T10:20:21.779Z,2940
2017-01-13T10:21:21.770Z,2968
2017-01-13T10:22:21.755Z,2912
2017-01-13T10:23:21.358Z,3108
2017-01-13T10:24:21.347Z,3024
2017-01-13T10:25:21.337Z,2504
2017-01-13T10:26:21.324Z,2648
2017-01-13T10:27:21.308Z,2548
2017-01-13T10:28:21.918Z,2672
2017-01-13T10:29:21.278Z,3008
2017-01-13T10:30:21.273Z,2772
2017-01-13T10:31:21.255Z,2724
2017-01-13T10:32:21.253Z,2740
2017-01-13T10:33:21.257Z,2584
2017-01-13T10:34:21.228Z,2532
2017-01-13T10:35:21.211Z,2568
2017-01-13T10:36:21.202Z,2596
2017-01-13T10:37:21.182Z,2412
2017-01-13T10:38:21.192Z,2620
2017-01-13T10:39:21.159Z,2600
2017-01-13T10:40:21.151Z,2580
2017-01-13T10:41:21.141Z,2668
2017-01-13T10:42:21.128Z,2704
2017-01-13T10:43:21.527Z,2668
2017-01-13T10:44:21.097Z,2556
2017-01-13T10:45:21.100Z,2660
2017-01-13T10:46:21.080Z,2760
2017-01-13T10:47:21.070Z,2896
2017-01-13T10:48:21.056Z,2968
2017-01-13T10:49:21.041Z,3124
2017-01-13T10:50:21.027Z,3448
2017-01-13T10:51:21.015Z,3324
2017-01-13T10:52:21.031Z,3384
2017-01-13T10:53:21.001Z,3788
2017-01-13T10:54:20.978Z,3844
2017-01-13T10:55:20.977Z,3916
2017-01-13T10:56:20.951Z,3504
2017-01-13T10:57:20.976Z,3404
2017-01-13T10:58:20.940Z,3400
2017-01-13T10:59:20.923Z,3748
2017-01-13T11:00:20.903Z,3260
2017-01-13T11:01:20.916Z,3084
2017-01-13T11:02:20.902Z,2828
2017-01-13T11:03:21.259Z,2556
2017-01-13T11:04:20.862Z,2508
2017-01-13T11:05:20.848Z,2512
2017-01-13T11:06:20.841Z,2568
2017-01-13T11:07:21.214Z,2336
2017-01-13T11:08:20.812Z,2224
2017-01-13T11:09:20.798Z,2144
2017-01-13T11:10:20.790Z,2288
2017-01-13T11:11:20.778Z,2372
2017-01-13T11:12:20.783Z,2828
2017-01-13T11:13:20.754Z,2816
2017-01-13T11:14:20.739Z,2784
2017-01-13T11:15:20.730Z,2532
2017-01-13T11:16:21.122Z,2820
2017-01-13T11:17:20.706Z,2852
2017-01-13T11:18:20.697Z,2940
2017-01-13T11:19:20.682Z,3024
2017-01-13T11:20:20.672Z,3300
2017-01-13T11:21:20.659Z,2808
2017-01-13T11:22:21.037Z,3352
2017-01-13T11:23:20.637Z,2992
2017-01-13T11:24:20.625Z,2732
2017-01-13T11:25:20.612Z,2788
2017-01-13T11:26:20.602Z,3152
2017-01-13T11:27:20.593Z,3168
2017-01-13T11:28:20.590Z,3564
2017-01-13T11:29:20.952Z,3912
2017-01-13T11:30:20.561Z,4552
2017-01-13T11:31:20.544Z,4364
2017-01-13T11:32:20.533Z,5468
2017-01-13T11:33:20.516Z,5072
2017-01-13T11:34:20.513Z,4532
2017-01-13T11:35:20.495Z,4164
2017-01-13T11:36:20.482Z,4796
2017-01-13T11:37:20.476Z,4072
2017-01-13T11:38:20.461Z,3908
2017-01-13T11:39:20.451Z,4380
2017-01-13T11:40:20.435Z,4320
2017-01-13T11:41:20.426Z,4788
2017-01-13T11:42:20.414Z,5432
2017-01-13T11:43:20.405Z,4844
2017-01-13T11:44:20.390Z,5592
2017-01-13T11:45:20.768Z,6384
2017-01-13T11:46:20.367Z,5516
2017-01-13T11:47:20.354Z,7328
2017-01-13T11:48:20.342Z,4744
2017-01-13T11:49:20.334Z,4752
2017-01-13T11:50:20.331Z,5840
2017-01-13T11:51:20.308Z,5860
2017-01-13T11:52:20.301Z,6236
2017-01-13T11:53:20.288Z,6428
2017-01-13T11:54:20.283Z,6668
2017-01-13T11:55:20.261Z,7548
2017-01-13T11:56:20.255Z,7432
2017-01-13T11:57:20.455Z,7016
2017-01-13T11:58:20.229Z,7232
2017-01-13T11:59:20.609Z,7028
2017-01-13T12:00:20.212Z,5976
2017-01-13T12:01:20.202Z,5832
2017-01-13T12:02:20.183Z,5688
2017-01-13T12:03:20.176Z,4648
2017-01-13T12:04:20.164Z,4868
2017-01-13T12:05:20.154Z,3324
2017-01-13T12:06:20.141Z,3592
2017-01-13T12:07:20.128Z,3780
2017-01-13T12:08:20.124Z,4612
2017-01-13T12:09:20.111Z,4016
2017-01-13T12:10:20.098Z,3984
2017-01-13T12:11:20.083Z,3468
2017-01-13T12:12:20.073Z,3544
2017-01-13T12:13:20.064Z,3040
2017-01-13T12:14:20.056Z,2892
2017-01-13T12:15:20.055Z,3076
2017-01-13T12:16:20.031Z,3208
2017-01-13T12:17:20.020Z,3676
2017-01-13T12:18:20.016Z,3760
2017-01-13T12:19:19.998Z,3400
2017-01-13T12:20:19.982Z,2880
2017-01-13T12:21:19.974Z,2980
2017-01-13T12:22:19.969Z,2884
2017-01-13T12:23:19.960Z,2572
2017-01-13T12:24:20.327Z,2184
2017-01-13T12:25:19.930Z,2164
2017-01-13T12:26:19.914Z,1992
2017-01-13T12:27:19.902Z,2120
2017-01-13T12:28:19.891Z,1996
2017-01-13T12:29:19.889Z,1744
2017-01-13T12:30:19.865Z,1804
2017-01-13T12:31:19.863Z,1656
2017-01-13T12:32:19.842Z,1848
2017-01-13T12:33:19.836Z,1968
2017-01-13T12:34:19.849Z,2016
2017-01-13T12:35:19.809Z,2228
2017-01-13T12:36:19.803Z,1928
2017-01-13T12:37:19.786Z,2092
2017-01-13T12:38:19.777Z,2344
2017-01-13T12:39:19.768Z,2344
2017-01-13T12:40:19.752Z,2828
2017-01-13T12:41:19.766Z,4016
2017-01-13T12:42:19.729Z,4024
2017-01-13T12:43:19.717Z,3812
2017-01-13T12:44:19.706Z,3804
2017-01-13T12:45:19.697Z,3748
2017-01-13T12:46:19.688Z,3032
2017-01-13T12:47:19.673Z,2852
2017-01-13T12:48:19.662Z,2352
2017-01-13T12:49:19.646Z,2020
2017-01-13T12:50:19.634Z,2124
2017-01-13T12:51:19.627Z,2120
2017-01-13T12:52:19.996Z,1848
2017-01-13T12:53:19.605Z,1960
2017-01-13T12:54:19.969Z,1808
2017-01-13T12:55:19.575Z,1976
2017-01-13T12:56:19.559Z,1980
2017-01-13T12:57:19.551Z,1972
2017-01-13T12:58:19.538Z,2156
2017-01-13T12:59:19.532Z,2356
2017-01-13T13:00:19.510Z,2388
2017-01-13T13:01:19.499Z,2268
2017-01-13T13:02:19.495Z,2560
2017-01-13T13:03:19.488Z,2576
2017-01-13T13:04:19.853Z,2244
2017-01-13T13:05:19.455Z,2128
2017-01-13T13:06:19.444Z,2348
2017-01-13T13:07:19.426Z,2188
2017-01-13T13:08:19.417Z,2052
2017-01-13T13:09:19.404Z,2100
2017-01-13T13:10:19.392Z,2180
2017-01-13T13:11:19.378Z,2068
2017-01-13T13:12:19.366Z,2468
2017-01-13T13:13:19.350Z,2624
2017-01-13T13:14:19.346Z,2560
2017-01-13T13:15:19.324Z,2520
2017-01-13T13:16:19.316Z,2932
2017-01-13T13:17:19.300Z,3020
2017-01-13T13:18:19.292Z,3168
2017-01-13T13:19:19.681Z,3576
2017-01-13T13:20:19.266Z,3236
2017-01-13T13:21:19.253Z,3140
2017-01-13T13:22:19.241Z,3056
2017-01-13T13:23:19.626Z,3172
2017-01-13T13:24:19.437Z,3028
2017-01-13T13:25:19.230Z,3052
2017-01-13T13:26:19.189Z,2624
2017-01-13T13:27:19.175Z,2544
2017-01-13T13:28:19.168Z,2412
2017-01-13T13:29:19.144Z,2176
2017-01-13T13:30:19.139Z,1848
2017-01-13T13:31:19.119Z,1972
2017-01-13T13:32:19.105Z,1888
2017-01-13T13:33:19.093Z,2020
2017-01-13T13:34:19.081Z,1724
2017-01-13T13:35:19.064Z,1788
2017-01-13T13:36:19.446Z,1668
2017-01-13T13:37:19.038Z,1596
2017-01-13T13:38:19.040Z,1540
2017-01-13T13:39:19.016Z,1556
2017-01-13T13:40:19.388Z,1340
2017-01-13T13:41:18.983Z,1356
2017-01-13T13:42:18.970Z,1216
2017-01-13T13:43:18.963Z,1148
2017-01-13T13:44:18.947Z,1072
2017-01-13T13:45:18.938Z,1092
2017-01-13T13:46:18.931Z,1112
2017-01-13T13:47:18.909Z,1008
2017-01-13T13:48:18.929Z,1116
2017-01-13T13:49:18.920Z,1168
2017-01-13T13:50:18.865Z,1216
2017-01-13T13:51:18.853Z,1172
2017-01-13T13:52:18.840Z,1188
2017-01-13T13:53:18.830Z,1120
2017-01-13T13:54:18.814Z,1164
2017-01-13T13:55:18.799Z,1112
2017-01-13T13:56:18.783Z,1008
2017-01-13T13:57:18.777Z,988
2017-01-13T13:58:18.756Z,980
2017-01-13T13:59:18.744Z,1204
2017-01-13T14:00:18.731Z,992
2017-01-13T14:01:18.716Z,1000